»·PEaware :: N332PS KONT-P14

N332PS :: KONT-P14

FLIGHT INFORMATION

Flight Status: Arrived
Operator: Privately registered:
United States
More flights under this callsign
Pilot: Brad S. (6004)
Aircraft: PILATUS PC-12 EAGLE
(PC12)
More flights by this aircraft type
Origin: KONT Ontario Intl
United States
Destination: P14 Holbrook Mun
United States
More flights between these airports :: More routes between these airports
Route: +PDZ TNP
File this flight plan on PilotEdge
Remarks:
Altitude:
(Current/Filed)
19,000ft
Speed:
(Current/Filed)
260kts
Departed: 28-Jun-15 03:00 PM
Arrived: 28-Jun-15 04:39 PM
Distance/Time
Traveled:
373nm/1:39
Distance/Time
To Go:
Arrived

Flight Plot

Page will automatically refresh every two minutes.

Flight plan parsing failed; only flown route is shown


Map Options




Map Legend


Flown Route
Filed Route
Departure Airport
Arrival Airport
Navaid (VOR, NDB)
Fix

Horizontal Profiles

Position Reports

Time Latitude Longitude Heading Altitude Ground
Speed
28-Jun-15 14:46 34.052621 -117.601332 89 949ft 0kts
28-Jun-15 14:47 34.052621 -117.601332 89 949ft 0kts
28-Jun-15 14:48 34.052621 -117.601332 89 949ft 0kts
28-Jun-15 14:49 34.052621 -117.601332 89 949ft 0kts
28-Jun-15 14:50 34.052621 -117.601332 89 949ft 0kts
28-Jun-15 14:51 34.052621 -117.601332 89 949ft 0kts
28-Jun-15 14:52 34.052621 -117.601332 89 949ft 0kts
28-Jun-15 14:53 34.052788 -117.601369 281 949ft 4kts
28-Jun-15 14:54 34.054001 -117.602494 49 949ft 9kts
28-Jun-15 14:55 34.053680 -117.602008 91 949ft 7kts
28-Jun-15 14:56 34.053665 -117.595851 90 949ft 23kts
28-Jun-15 14:57 34.053658 -117.587822 90 949ft 23kts
28-Jun-15 14:58 34.054241 -117.582696 358 949ft 11kts
28-Jun-15 14:59 34.054953 -117.595581 269 1061ft 102kts
28-Jun-15 15:00 34.055915 -117.637813 261 2770ft 141kts
28-Jun-15 15:01 34.025644 -117.633143 140 4748ft 150kts
28-Jun-15 15:02 33.992905 -117.598312 139 6657ft 162kts
28-Jun-15 15:03 33.957453 -117.563699 142 8624ft 166kts
28-Jun-15 15:04 33.921398 -117.529409 141 10604ft 162kts
28-Jun-15 15:05 33.920828 -117.473521 81 12060ft 190kts
28-Jun-15 15:06 33.931459 -117.409761 86 13465ft 196kts
28-Jun-15 15:07 33.939695 -117.345440 87 14873ft 190kts
28-Jun-15 15:08 33.947181 -117.283087 88 16254ft 184kts
28-Jun-15 15:09 33.953957 -117.222709 88 17671ft 185kts
28-Jun-15 15:10 33.961034 -117.160732 88 18902ft 189kts
28-Jun-15 15:11 33.968871 -117.090515 87 19014ft 232kts
28-Jun-15 15:12 33.977958 -117.010380 86 19043ft 249kts
28-Jun-15 15:13 33.987536 -116.925641 86 19075ft 259kts
28-Jun-15 15:14 33.997053 -116.841018 86 19104ft 259kts
28-Jun-15 15:15 34.006666 -116.755748 86 19129ft 259kts
28-Jun-15 15:16 34.016117 -116.670334 87 19088ft 253kts
28-Jun-15 15:17 34.025271 -116.586668 87 19051ft 251kts
28-Jun-15 15:18 34.034392 -116.502916 87 19031ft 255kts
28-Jun-15 15:19 34.043572 -116.418424 87 18999ft 251kts
28-Jun-15 15:20 34.052667 -116.335305 87 19001ft 251kts
28-Jun-15 15:21 34.061587 -116.251541 87 19012ft 255kts
28-Jun-15 15:22 34.070621 -116.167240 87 19013ft 250kts
28-Jun-15 15:23 34.079358 -116.083714 87 19010ft 256kts
28-Jun-15 15:24 34.088289 -115.998915 87 19000ft 253kts
28-Jun-15 15:25 34.097073 -115.914762 86 18989ft 251kts
28-Jun-15 15:26 34.105763 -115.831359 86 18976ft 250kts
28-Jun-15 15:27 34.115819 -115.747308 82 18971ft 258kts
28-Jun-15 15:28 34.130601 -115.663150 81 18950ft 254kts
28-Jun-15 15:29 34.144898 -115.579637 81 18938ft 253kts
28-Jun-15 15:30 34.159151 -115.497163 82 19230ft 242kts
28-Jun-15 15:31 34.172055 -115.420269 81 19917ft 227kts
28-Jun-15 15:32 34.184638 -115.346359 82 20609ft 221kts
28-Jun-15 15:33 34.196896 -115.274071 82 21303ft 217kts
28-Jun-15 15:34 34.208694 -115.203201 82 22002ft 213kts
28-Jun-15 15:35 34.220268 -115.133326 82 22697ft 210kts
28-Jun-15 15:36 34.232107 -115.061241 82 22881ft 228kts
28-Jun-15 15:37 34.246755 -114.984311 74 22874ft 242kts
28-Jun-15 15:38 34.271193 -114.907133 72 22867ft 247kts
28-Jun-15 15:39 34.296533 -114.828516 72 22874ft 257kts
28-Jun-15 15:40 34.322149 -114.748516 72 22855ft 253kts
28-Jun-15 15:41 34.343421 -114.682169 72 22836ft 252kts
28-Jun-15 15:42 34.366459 -114.602573 81 22835ft 248kts
28-Jun-15 15:43 34.377339 -114.520103 83 22836ft 247kts
28-Jun-15 15:44 34.388656 -114.437806 82 22835ft 247kts
28-Jun-15 15:45 34.400413 -114.355891 82 22835ft 247kts
28-Jun-15 15:46 34.412297 -114.273786 82 22840ft 247kts
28-Jun-15 15:47 34.424124 -114.191961 82 22844ft 247kts
28-Jun-15 15:48 34.435941 -114.109878 82 22850ft 246kts
28-Jun-15 15:49 34.447699 -114.027830 82 22858ft 246kts
28-Jun-15 15:50 34.459379 -113.945839 82 22872ft 249kts
28-Jun-15 15:51 34.471192 -113.862502 82 22864ft 250kts
28-Jun-15 15:52 34.482924 -113.779399 82 22876ft 249kts
28-Jun-15 15:53 34.494530 -113.696787 82 22891ft 248kts
28-Jun-15 15:54 34.506096 -113.614027 82 22908ft 248kts
28-Jun-15 15:55 34.517567 -113.531519 82 22927ft 248kts
28-Jun-15 15:56 34.528924 -113.449517 82 23054ft 245kts
28-Jun-15 15:57 34.540225 -113.367395 82 23067ft 247kts
28-Jun-15 15:58 34.551489 -113.285029 82 23082ft 250kts
28-Jun-15 15:59 34.562856 -113.201365 82 23089ft 250kts
28-Jun-15 16:00 34.574122 -113.118229 82 23104ft 248kts
28-Jun-15 16:01 34.585277 -113.035466 82 23097ft 248kts
28-Jun-15 16:02 34.596380 -112.952676 82 23119ft 247kts
28-Jun-15 16:03 34.607399 -112.870064 82 23141ft 247kts
28-Jun-15 16:04 34.618473 -112.787646 82 23159ft 247kts
28-Jun-15 16:05 34.629115 -112.706723 84 23181ft 241kts
28-Jun-15 16:06 34.638849 -112.625570 83 23198ft 244kts
28-Jun-15 16:07 34.649342 -112.545078 81 23226ft 234kts
28-Jun-15 16:08 34.661063 -112.466108 81 23242ft 241kts
28-Jun-15 16:09 34.670360 -112.384537 80 23225ft 245kts
28-Jun-15 16:10 34.680944 -112.302520 82 23228ft 246kts
28-Jun-15 16:11 34.692255 -112.219843 82 23206ft 248kts
28-Jun-15 16:12 34.701439 -112.136925 81 23224ft 247kts
28-Jun-15 16:13 34.712677 -112.054628 81 23212ft 247kts
28-Jun-15 16:14 34.723439 -111.971633 80 23206ft 253kts
28-Jun-15 16:15 34.734134 -111.886158 81 22490ft 254kts
28-Jun-15 16:16 34.744706 -111.800920 81 21608ft 260kts
28-Jun-15 16:17 34.755446 -111.713521 81 20807ft 263kts
28-Jun-15 16:18 34.766201 -111.625534 81 20000ft 262kts
28-Jun-15 16:19 34.776839 -111.538221 81 19191ft 260kts
28-Jun-15 16:20 34.787388 -111.451294 81 18390ft 259kts
28-Jun-15 16:21 34.797885 -111.364417 81 17589ft 259kts
28-Jun-15 16:22 34.808263 -111.277822 81 16792ft 259kts
28-Jun-15 16:23 34.818591 -111.190728 81 15998ft 261kts
28-Jun-15 16:24 34.828970 -111.102707 81 15209ft 266kts
28-Jun-15 16:25 34.839460 -111.012873 81 14223ft 272kts
28-Jun-15 16:26 34.850078 -110.921413 81 13222ft 274kts
28-Jun-15 16:27 34.860678 -110.829800 81 12211ft 271kts
28-Jun-15 16:28 34.871086 -110.739813 82 11219ft 270kts
28-Jun-15 16:29 34.881430 -110.649752 82 10206ft 266kts
28-Jun-15 16:30 34.891643 -110.560453 82 9214ft 269kts
28-Jun-15 16:31 34.901780 -110.471161 82 8198ft 263kts
28-Jun-15 16:32 34.911805 -110.383070 83 7236ft 259kts
28-Jun-15 16:33 34.921280 -110.299567 83 7049ft 238kts
28-Jun-15 16:34 34.930375 -110.221603 84 7061ft 229kts
28-Jun-15 16:35 34.962696 -110.161839 41 6290ft 198kts
28-Jun-15 16:36 34.966297 -110.125468 153 5799ft 111kts
28-Jun-15 16:37 34.941409 -110.137953 218 5267ft 55kts
28-Jun-15 16:38 34.936078 -110.141973 129 5267ft 12kts

Navigation Log

Ident Type
Flight plan parsing failed, navigation log unavailable